New Philadelphia, OH

11:24 PM EST on March 03, 2015 (GMT -0500)
Lockport | Change Station
CLOSE
Current Station
Personal Weather Station
Location: New Philadelphia, OH
Elevation: 856 ft
Nearby Weather Stations

Elev 856 ft 40.46 °N, 81.43 °W | Updated 2 seconds ago

Light Rain
Light Rain Mist
40.7 °F
Feels Like 39 °F
N
3.6
Wind Variable Wind from WNW
Gusts 6.7 mph

Today
High -- | Low -- °F
--% Chance of Precip.
Yesterday
High -- | Low -- °F
Precip. -- in
6:56 AM 6:19 PM
Waxing Gibbous, 98% visible
Pressure 29.79 in
Visibility 3.0 miles
Clouds Mostly Cloudy 1500 ft
Overcast 2200 ft
Windchill 39 °F
Dew Point Not available.
Humidity Not available.
Rainfall 0.43 in
Snow Depth Not available.
UV 0 out of 12
Pollen .50 out of 12
Air Quality Not available.
Flu Activity Not available.
METAR KPHD 040407Z AUTO 29007KT 3SM -RA BR BKN015 OVC022 06/04 A2979 RMK AO2 P0002 T00610044

More Conditions Fewer Conditions

Pressure 29.79 in
Visibility 3.0 miles
Clouds Mostly Cloudy 1500 ft
Overcast 2200 ft
Windchill 39 °F
Dew Point Not available.
Humidity Not available.
Rainfall 0.43 in
Snow Depth Not available.
UV 0 out of 12
Pollen .50 out of 12
Air Quality Not available.
Flu Activity Not available.
METAR KPHD 040407Z AUTO 29007KT 3SM -RA BR BKN015 OVC022 06/04 A2979 RMK AO2 P0002 T00610044

More Conditions Fewer Conditions

10-Day Weather Forecast

Almanac

Astronomy

Mar. 03, 2015 Rise Set
Actual Time
Civil Twilight
Nautical Twilight
Astronomical Twilight
Moon
Length of Visible Light
Length of Day
Tomorrow will be .
, % of the Moon is Illuminated

Today's Extremes

State Highs State Lows

Community

WunderPhotos

Upload Photos

1,802,383 photos uploaded!

WunderBlogs® & News

Nearby

Air Quality

  Air Quality AQ Index Pollutant
Not available.

Snow Depth

Station Depth Elevation

Earthquake Activity

City Distance Mag. Time & Date
Minimum magnitude displayed is 2.5.

Coastal Water Temperatures

Place Temperature

Nearby Weather Stations